Time;durP1;ratioP1;P1;durP2;ratioP2;P2;SDS_P1;SDS_P2;PMS_P1;PMS_P2;Temp;Humidity;BMP_temperature;BMP_pressure;BME280_temperature;BME280_humidity;BME280_pressure;Samples;Min_cycle;Max_cycle;Signal;HPM_P1;HPM_P2
2023/10/10 00:02:06;;;;;;;61.13;38.10;;;;;;;14.54;96.84;99184.47;5002624;28;20461;-81
2023/10/10 00:04:33;;;;;;;49.72;35.63;;;;;;;14.50;96.85;99181.53;5006364;28;20049;-81
2023/10/10 00:07:02;;;;;;;49.25;34.50;;;;;;;14.56;95.89;99175.09;5028292;28;20038;-81
2023/10/10 00:09:28;;;;;;;45.53;33.50;;;;;;;14.48;96.62;99166.75;5028410;28;20024;-81
2023/10/10 00:11:57;;;;;;;50.05;34.35;;;;;;;14.44;96.71;99177.19;5030592;28;20033;-81
2023/10/10 00:14:26;;;;;;;49.75;34.40;;;;;;;14.55;96.65;99188.75;5028827;28;20041;-81
2023/10/10 00:16:55;;;;;;;49.78;35.42;;;;;;;14.46;96.21;99180.41;5028507;28;20049;-80
2023/10/10 00:21:52;;;;;;;47.75;34.83;;;;;;;14.51;96.14;99185.00;5024676;28;20112;-81
2023/10/10 00:24:20;;;;;;;45.90;32.78;;;;;;;14.49;96.18;99181.78;5028720;28;20108;-80
2023/10/10 00:26:49;;;;;;;43.60;34.10;;;;;;;14.39;96.45;99169.16;5011888;28;20448;-81
2023/10/10 00:29:17;;;;;;;44.75;32.95;;;;;;;14.51;96.45;99180.44;5011565;28;20481;-81
2023/10/10 00:31:55;;;;;;;43.78;31.60;;;;;;;14.39;95.86;99174.50;5025996;28;20572;-81
2023/10/10 00:34:20;;;;;;;47.97;32.83;;;;;;;14.32;96.46;99168.59;5011863;28;20033;-80
2023/10/10 00:36:47;;;;;;;50.17;34.72;;;;;;;14.36;97.05;99185.78;4990625;28;20048;-81
2023/10/10 00:42:00;;;;;;;49.83;32.67;;;;;;;14.42;96.37;99168.59;5028675;28;20044;-81
2023/10/10 00:44:27;;;;;;;46.65;31.60;;;;;;;14.34;96.15;99176.38;5025344;28;20021;-81
2023/10/10 00:46:55;;;;;;;45.33;31.58;;;;;;;14.41;95.72;99174.25;5012523;28;20029;-80
2023/10/10 00:49:24;;;;;;;45.80;31.20;;;;;;;14.38;95.42;99170.19;5027901;28;20056;-81
2023/10/10 00:51:51;;;;;;;42.33;31.02;;;;;;;14.39;95.92;99174.50;5029144;28;20030;-81
2023/10/10 00:56:55;;;;;;;42.65;30.85;;;;;;;14.31;96.17;99160.81;5026296;28;20025;-81
2023/10/10 00:59:42;;;;;;;45.58;32.40;;;;;;;14.26;95.53;99154.28;5031070;28;20025;-80
2023/10/10 01:02:10;;;;;;;51.05;34.75;;;;;;;14.27;95.96;99177.41;5026915;28;20079;-81
2023/10/10 01:04:39;;;;;;;46.10;31.52;;;;;;;14.22;96.60;99155.06;5028807;28;20385;-81
2023/10/10 01:07:08;;;;;;;44.45;31.05;;;;;;;14.23;95.58;99148.66;5026768;28;20169;-81
2023/10/10 01:09:39;;;;;;;45.15;29.77;;;;;;;14.39;94.52;99166.47;5028992;28;20378;-81
2023/10/10 01:12:05;;;;;;;41.22;29.92;;;;;;;14.20;95.32;99152.66;5026036;28;20040;-81
2023/10/10 01:14:31;;;;;;;39.42;28.30;;;;;;;14.37;94.79;99170.47;5023721;28;20401;-81
2023/10/10 01:17:00;;;;;;;44.72;30.92;;;;;;;14.22;95.19;99172.00;5020417;28;20025;-81
2023/10/10 01:19:29;;;;;;;41.00;28.83;;;;;;;14.24;95.65;99172.53;5026502;28;20083;-81
2023/10/10 01:21:58;;;;;;;42.83;26.98;;;;;;;14.39;94.57;99171.84;5017494;28;20109;-81
2023/10/10 01:24:30;;;;;;;42.63;27.27;;;;;;;14.25;95.29;99165.31;5028540;28;20041;-81
2023/10/10 01:27:03;;;;;;;42.50;28.73;;;;;;;14.11;95.12;99150.75;5027130;28;20025;-81
2023/10/10 01:29:29;;;;;;;43.28;28.67;;;;;;;14.04;96.82;99166.31;5027015;28;20064;-80
2023/10/10 01:31:58;;;;;;;39.85;27.58;;;;;;;14.02;96.69;99171.94;5028783;28;20045;-80
2023/10/10 01:34:31;;;;;;;37.00;25.33;;;;;;;14.09;96.20;99179.72;5026429;28;20064;-81
2023/10/10 01:37:02;;;;;;;37.35;25.25;;;;;;;14.12;95.08;99169.31;5027163;28;20047;-80
2023/10/10 01:39:49;;;;;;;35.80;24.13;;;;;;;14.14;95.29;99174.41;5007537;28;20029;-80
2023/10/10 01:42:18;;;;;;;40.50;27.33;;;;;;;14.01;97.08;99181.06;5024920;28;20017;-81
2023/10/10 01:44:43;;;;;;;39.22;26.27;;;;;;;14.04;96.04;99160.94;5028473;28;20029;-81
2023/10/10 01:47:26;;;;;;;35.00;23.48;;;;;;;14.25;94.56;99174.16;5021654;28;20034;-81
2023/10/10 01:49:52;;;;;;;38.78;25.27;;;;;;;14.22;95.05;99174.69;5023287;28;20433;-81
2023/10/10 01:52:20;;;;;;;41.25;23.58;;;;;;;14.26;94.78;99172.31;5027042;28;20532;-81
2023/10/10 01:54:52;;;;;;;39.75;27.10;;;;;;;14.18;95.32;99170.91;5023624;28;20029;-81
2023/10/10 01:57:21;;;;;;;34.53;22.73;;;;;;;14.33;94.14;99172.88;5027844;28;20776;-81
2023/10/10 01:59:51;;;;;;;34.97;24.83;;;;;;;14.19;94.83;99159.13;5026093;28;20033;-81
2023/10/10 02:02:18;;;;;;;30.98;21.58;;;;;;;14.13;95.78;99156.69;5010272;28;20025;-81
2023/10/10 02:04:44;;;;;;;29.90;21.88;;;;;;;14.28;95.03;99168.25;5010409;28;20107;-80
2023/10/10 02:07:23;;;;;;;31.52;21.23;;;;;;;14.14;95.31;99167.16;5026139;28;20064;-81
2023/10/10 02:09:59;;;;;;;31.40;23.30;;;;;;;14.10;95.85;99155.34;5025632;28;20429;-82
2023/10/10 02:12:26;;;;;;;34.25;21.88;;;;;;;14.21;95.10;99178.47;5001405;28;20037;-81
2023/10/10 02:14:54;;;;;;;28.63;21.75;;;;;;;14.20;94.09;99170.66;5028079;28;20033;-81
2023/10/10 02:17:22;;;;;;;45.05;29.35;;;;;;;13.97;96.01;99169.25;5027496;28;20141;-81
2023/10/10 02:19:58;;;;;;;29.13;20.42;;;;;;;14.03;94.84;99175.41;5027523;28;20025;-81
2023/10/10 02:22:32;;;;;;;28.13;19.45;;;;;;;14.02;95.26;99168.47;5009378;28;20095;-81
2023/10/10 02:28:03;;;;;;;36.20;25.08;;;;;;;13.94;94.39;99150.97;5026364;28;20400;-81
2023/10/10 02:30:34;;;;;;;52.25;33.25;;;;;;;13.89;95.86;99171.63;5022320;28;20497;-81
2023/10/10 02:35:56;;;;;;;28.88;20.38;;;;;;;13.89;95.17;99161.66;5023905;28;20487;-81
2023/10/10 02:38:32;;;;;;;46.70;30.27;;;;;;;13.89;95.34;99168.94;5024062;28;20033;-80
2023/10/10 02:41:27;;;;;;;26.02;18.90;;;;;;;13.93;94.70;99160.09;5024124;28;20033;-81
2023/10/10 02:43:56;;;;;;;45.17;28.98;;;;;;;13.90;95.47;99181.28;5021932;28;20535;-81
2023/10/10 02:46:35;;;;;;;53.08;31.00;;;;;;;13.81;96.01;99172.09;5024897;28;20080;-81
2023/10/10 02:49:09;;;;;;;28.70;20.02;;;;;;;13.84;95.43;99161.66;5024015;28;20108;-81
2023/10/10 02:51:48;;;;;;;45.08;31.38;;;;;;;13.76;97.81;99164.84;5026934;28;20037;-81
2023/10/10 02:56:56;;;;;;;29.10;19.83;;;;;;;14.12;94.20;99163.13;5027009;28;20079;-81
2023/10/10 02:59:31;;;;;;;31.15;21.67;;;;;;;14.07;93.58;99155.84;5026550;28;20033;-81
2023/10/10 03:01:57;;;;;;;27.85;18.58;;;;;;;14.10;93.73;99158.03;4991646;28;20465;-80
2023/10/10 03:04:52;;;;;;;23.98;18.83;;;;;;;14.00;94.83;99171.38;5027338;28;20543;-81
2023/10/10 03:07:09;;;;;;;38.08;24.00;;;;;;;13.92;94.33;99152.28;5023606;28;20119;-81
2023/10/10 03:10:06;;;;;;;30.17;20.27;;;;;;;14.19;93.71;99169.88;5005861;28;20128;-81
2023/10/10 03:12:24;;;;;;;36.50;23.08;;;;;;;14.06;94.43;99166.84;5026762;28;20112;-81
2023/10/10 03:14:53;;;;;;;25.48;19.48;;;;;;;14.22;93.23;99168.50;5007634;28;20103;-81
2023/10/10 03:17:45;;;;;;;25.20;19.80;;;;;;;14.12;93.12;99168.47;5009009;28;20030;-81
2023/10/10 03:20:34;;;;;;;29.98;20.52;;;;;;;14.12;94.19;99163.13;5011773;28;20136;-81
2023/10/10 03:28:29;;;;;;;39.97;26.77;;;;;;;14.03;95.01;99154.75;5026042;28;20439;-81
2023/10/10 03:33:44;;;;;;;38.75;23.85;;;;;;;13.98;95.16;99157.41;5027873;28;20033;-81
2023/10/10 05:25:25;;;;;;;29.45;20.70;;;;;;;14.00;93.47;99162.53;5030327;28;20052;-81
2023/10/10 05:27:52;;;;;;;32.78;21.98;;;;;;;14.06;92.83;99148.06;5023935;28;20397;-82
2023/10/10 05:30:25;;;;;;;53.65;33.83;;;;;;;13.86;94.27;99147.97;5031211;28;20033;-81
2023/10/10 05:33:03;;;;;;;34.72;22.80;;;;;;;13.96;93.84;99164.94;5030802;28;20035;-81
2023/10/10 05:35:30;;;;;;;42.38;30.85;;;;;;;13.87;94.48;99161.13;5025743;28;20034;-81
2023/10/10 05:37:57;;;;;;;37.55;24.27;;;;;;;13.91;94.04;99172.16;5011724;28;20392;-81
2023/10/10 05:40:24;;;;;;;58.53;35.58;;;;;;;13.52;98.93;99164.44;5029168;28;20025;-81
2023/10/10 05:42:51;;;;;;;32.50;23.63;;;;;;;13.94;94.12;99187.72;4992353;28;20037;-81
2023/10/10 05:45:18;;;;;;;50.80;31.38;;;;;;;13.82;94.66;99169.19;5024139;28;20057;-81
2023/10/10 05:47:44;;;;;;;39.38;28.02;;;;;;;13.89;94.18;99169.72;5014383;28;20033;-81
2023/10/10 05:50:10;;;;;;;37.42;24.85;;;;;;;13.96;93.94;99177.53;5010265;28;20120;-81
2023/10/10 05:52:39;;;;;;;41.00;28.55;;;;;;;14.01;93.65;99175.69;5020968;28;20377;-81
2023/10/10 05:55:10;;;;;;;35.30;23.48;;;;;;;14.05;93.29;99175.97;5023857;28;20132;-81
2023/10/10 05:57:36;;;;;;;53.03;36.17;;;;;;;13.82;96.11;99171.03;4994769;28;20119;-81
2023/10/10 06:00:07;;;;;;;32.97;24.25;;;;;;;13.98;95.36;99188.81;5021709;28;20076;-81
2023/10/10 06:02:32;;;;;;;37.10;25.52;;;;;;;14.06;93.29;99170.34;5028145;28;20033;-81
2023/10/10 06:04:58;;;;;;;33.90;23.52;;;;;;;14.03;92.91;99172.75;5029770;28;20362;-81
2023/10/10 06:07:23;;;;;;;37.47;23.50;;;;;;;14.09;93.46;99185.09;5013659;28;20048;-81
2023/10/10 06:09:51;;;;;;;36.40;24.27;;;;;;;14.16;93.45;99185.66;5008303;28;20033;-82
2023/10/10 06:12:19;;;;;;;45.65;29.77;;;;;;;14.08;93.42;99184.31;5022159;28;20116;-81
2023/10/10 06:14:46;;;;;;;47.13;30.05;;;;;;;14.05;93.05;99178.66;4992337;28;20069;-81
2023/10/10 06:17:12;;;;;;;42.33;28.55;;;;;;;13.92;95.33;99187.19;5001000;28;20030;-80
2023/10/10 06:19:38;;;;;;;46.95;32.20;;;;;;;14.07;94.05;99189.94;4998365;28;20045;-81
2023/10/10 06:22:08;;;;;;;34.03;25.20;;;;;;;14.17;92.59;99195.34;5008577;28;20096;-81
2023/10/10 06:24:34;;;;;;;34.80;25.05;;;;;;;14.18;92.57;99196.94;5029963;28;20029;-81
2023/10/10 06:27:00;;;;;;;41.28;29.08;;;;;;;14.03;93.62;99178.09;5029713;28;20037;-81
2023/10/10 06:29:34;;;;;;;35.92;25.20;;;;;;;14.21;92.81;99201.81;5004682;28;20028;-81
2023/10/10 06:32:00;;;;;;;40.65;27.50;;;;;;;14.24;93.52;99201.28;5010309;28;20451;-81
2023/10/10 06:34:34;;;;;;;39.83;28.40;;;;;;;14.20;93.01;99197.50;5026582;28;20116;-81
2023/10/10 06:37:10;;;;;;;35.95;26.45;;;;;;;14.22;93.11;99193.47;5024136;28;20148;-81
2023/10/10 06:39:53;;;;;;;36.38;26.52;;;;;;;14.18;92.85;99178.97;5026139;28;20034;-81
2023/10/10 06:42:27;;;;;;;38.97;26.45;;;;;;;14.29;92.35;99195.94;5011526;28;20040;-81
2023/10/10 06:44:55;;;;;;;44.42;30.27;;;;;;;14.18;93.07;99194.28;5029292;28;20025;-81
2023/10/10 06:47:21;;;;;;;41.67;28.52;;;;;;;14.32;92.82;99205.38;5029651;28;20108;-81
2023/10/10 06:49:54;;;;;;;38.95;28.27;;;;;;;14.21;92.86;99194.56;5030367;28;20120;-80
2023/10/10 06:52:19;;;;;;;37.42;28.38;;;;;;;14.27;93.36;99198.88;5029270;28;20045;-81
2023/10/10 06:54:53;;;;;;;44.35;28.38;;;;;;;14.21;92.93;99196.44;5005703;28;20076;-81
2023/10/10 06:57:19;;;;;;;42.63;28.02;;;;;;;14.17;93.45;99201.53;4988671;28;20030;-81
2023/10/10 06:59:45;;;;;;;42.95;28.42;;;;;;;14.21;93.26;99202.63;5028030;28;20428;-81
2023/10/10 07:02:21;;;;;;;55.15;34.50;;;;;;;14.02;95.66;99203.34;4996432;28;20029;-81
2023/10/10 07:04:53;;;;;;;50.33;28.65;;;;;;;14.12;94.52;99203.38;5010085;28;20050;-81
2023/10/10 07:07:26;;;;;;;57.28;34.97;;;;;;;13.98;95.94;99200.38;5028794;28;20072;-81
2023/10/10 07:09:57;;;;;;;47.30;31.13;;;;;;;14.05;94.18;99189.38;5024294;28;20013;-81
2023/10/10 07:12:23;;;;;;;47.40;30.88;;;;;;;13.95;95.60;99194.72;5012145;28;20040;-80
2023/10/10 07:14:53;;;;;;;46.83;30.33;;;;;;;14.14;94.12;99198.56;5027207;28;20108;-81
2023/10/10 07:17:21;;;;;;;58.55;34.83;;;;;;;14.08;95.44;99202.28;5012969;28;20033;-81
2023/10/10 07:22:35;;;;;;;51.45;34.45;;;;;;;14.17;95.85;99211.47;5018136;28;20036;-81
2023/10/10 07:25:18;;;;;;;53.10;33.42;;;;;;;14.37;94.97;99211.56;5027163;28;20114;-81
2023/10/10 07:27:44;;;;;;;41.20;29.23;;;;;;;14.48;94.15;99210.50;5035047;28;20112;-81
2023/10/10 07:30:19;;;;;;;42.00;29.05;;;;;;;14.35;94.91;99199.47;5034681;28;20608;-81
2023/10/10 07:32:48;;;;;;;37.78;26.38;;;;;;;14.49;92.71;99192.50;5032705;28;20125;-81
2023/10/10 07:35:23;;;;;;;45.65;27.10;;;;;;;14.57;92.88;99194.72;5030379;28;20033;-81
2023/10/10 07:37:52;;;;;;;39.60;26.50;;;;;;;14.54;93.55;99201.41;5033278;28;20029;-81
2023/10/10 07:40:20;;;;;;;41.38;27.73;;;;;;;14.64;91.85;99209.47;4996374;28;20037;-80
2023/10/10 07:42:58;;;;;;;45.28;30.00;;;;;;;14.63;92.34;99202.50;5029709;28;20033;-81
2023/10/10 07:45:33;;;;;;;44.17;30.10;;;;;;;14.53;93.13;99204.34;5015577;28;20033;-80
2023/10/10 07:50:35;;;;;;;48.08;31.70;;;;;;;14.66;92.82;99201.97;5034559;28;20071;-81
2023/10/10 07:53:12;;;;;;;73.40;36.15;;;;;;;14.69;94.17;99206.81;5033140;28;20033;-80
2023/10/10 07:55:53;;;;;;;52.63;34.10;;;;;;;14.70;94.87;99208.41;5026617;28;20082;-81
2023/10/10 07:58:23;;;;;;;52.00;35.38;;;;;;;14.67;96.19;99202.78;5010753;28;20033;-81
2023/10/10 08:00:51;;;;;;;53.65;33.85;;;;;;;14.75;96.01;99197.69;5016665;28;20025;-81
2023/10/10 08:03:19;;;;;;;49.33;31.05;;;;;;;14.96;93.22;99204.69;5023363;28;20120;-81
2023/10/10 08:05:50;;;;;;;45.63;30.70;;;;;;;14.96;93.44;99211.97;4983019;28;20409;-82
2023/10/10 08:08:19;;;;;;;44.05;31.70;;;;;;;14.84;93.48;99204.16;4995696;28;20104;-82
2023/10/10 08:10:49;;;;;;;49.15;31.88;;;;;;;14.89;93.03;99200.66;5008492;28;20064;-81
2023/10/10 08:13:14;;;;;;;48.03;31.23;;;;;;;14.81;93.40;99187.72;5011444;28;20057;-81
2023/10/10 08:16:02;;;;;;;48.67;31.40;;;;;;;14.96;93.17;99207.38;4997387;28;20177;-81
2023/10/10 08:18:41;;;;;;;51.22;31.23;;;;;;;15.09;92.83;99205.25;5019290;28;20612;-81
2023/10/10 08:21:10;;;;;;;49.97;28.52;;;;;;;15.07;92.67;99192.03;5010693;28;20071;-81
2023/10/10 08:23:42;;;;;;;43.70;28.83;;;;;;;15.20;92.37;99196.09;5012082;28;20037;-82
2023/10/10 08:26:09;;;;;;;47.20;31.27;;;;;;;15.17;92.40;99193.94;5018399;28;20045;-81
2023/10/10 08:28:35;;;;;;;44.53;29.30;;;;;;;15.25;92.57;99196.06;4981069;28;20021;-81
2023/10/10 08:31:00;;;;;;;48.13;30.17;;;;;;;15.29;91.60;99199.88;5017972;28;20130;-80
2023/10/10 08:33:32;;;;;;;39.72;27.50;;;;;;;15.21;90.95;99171.63;5015115;28;20116;-82
2023/10/10 08:35:58;;;;;;;45.88;28.70;;;;;;;15.13;92.49;99184.81;5016149;28;20041;-81
2023/10/10 08:38:23;;;;;;;49.63;31.00;;;;;;;15.20;91.91;99172.69;4997997;28;20029;-81
2023/10/10 08:40:58;;;;;;;40.72;27.63;;;;;;;15.34;91.49;99181.00;4993108;28;20108;-81
2023/10/10 08:43:28;;;;;;;37.60;27.02;;;;;;;15.38;91.01;99188.28;5002589;28;20092;-82
2023/10/10 08:45:56;;;;;;;37.67;26.20;;;;;;;15.40;90.97;99180.72;5017292;28;20073;-82
2023/10/10 08:48:26;;;;;;;42.53;27.05;;;;;;;15.39;90.59;99163.00;5016649;28;20029;-81
2023/10/10 08:50:55;;;;;;;48.80;28.42;;;;;;;15.39;90.78;99173.75;5000911;28;20095;-81
2023/10/10 08:53:22;;;;;;;44.22;26.48;;;;;;;15.42;90.63;99167.03;5016785;28;20120;-81
2023/10/10 08:55:56;;;;;;;42.33;28.60;;;;;;;15.34;90.80;99154.13;5012169;28;20041;-81
2023/10/10 08:58:22;;;;;;;43.85;27.92;;;;;;;15.34;92.69;99173.75;4995098;28;20528;-81
2023/10/10 09:00:48;;;;;;;39.40;26.17;;;;;;;15.33;91.25;99158.69;4994575;28;20056;-81
2023/10/10 09:03:13;;;;;;;35.85;25.83;;;;;;;15.32;91.42;99157.09;5013455;28;20116;-82
2023/10/10 09:05:39;;;;;;;36.92;24.40;;;;;;;15.43;90.95;99157.88;5028866;28;20120;-81
2023/10/10 09:08:17;;;;;;;45.28;26.08;;;;;;;15.38;90.81;99147.91;4979371;28;20122;-81
2023/10/10 09:10:45;;;;;;;39.53;26.30;;;;;;;15.40;90.42;99158.41;5011632;28;20083;-81
2023/10/10 09:13:11;;;;;;;39.75;27.00;;;;;;;15.36;90.76;99157.34;5014684;28;20048;-82
2023/10/10 09:15:36;;;;;;;36.47;24.27;;;;;;;15.56;90.62;99168.91;4997009;28;20692;-80
2023/10/10 09:18:22;;;;;;;38.65;24.73;;;;;;;15.51;89.82;99151.97;5013898;28;20029;-81
2023/10/10 09:20:47;;;;;;;34.13;24.65;;;;;;;15.67;90.02;99169.69;5009232;28;20061;-81
2023/10/10 09:23:21;;;;;;;37.78;24.42;;;;;;;15.62;89.97;99151.66;5004923;28;20507;-81
2023/10/10 09:26:09;;;;;;;32.30;24.45;;;;;;;15.59;90.92;99173.75;4998697;28;20496;-81
2023/10/10 09:29:03;;;;;;;41.90;25.05;;;;;;;15.48;92.08;99168.66;5011143;28;21539;-81
2023/10/10 09:31:31;;;;;;;36.63;24.05;;;;;;;15.46;91.50;99150.13;5011712;28;20026;-81
2023/10/10 09:34:06;;;;;;;34.28;24.15;;;;;;;15.43;91.45;99147.94;5009283;28;20029;-81
2023/10/10 09:36:38;;;;;;;30.80;22.25;;;;;;;15.54;91.42;99160.31;5009344;28;20084;-81
2023/10/10 09:39:08;;;;;;;41.97;24.33;;;;;;;15.53;92.15;99157.91;4992701;28;20034;-81
2023/10/10 09:49:46;;;;;;;32.80;21.38;;;;;;;15.75;90.90;99151.09;5011778;28;20411;-81
2023/10/10 09:57:40;;;;;;;29.60;20.80;;;;;;;15.97;90.86;99166.06;5015313;28;20037;-81
2023/10/10 10:00:10;;;;;;;38.65;22.77;;;;;;;16.19;89.66;99161.13;5009084;28;20888;-81
2023/10/10 10:02:43;;;;;;;33.63;20.48;;;;;;;16.18;88.56;99156.84;4991887;28;20056;-81
2023/10/10 10:05:28;;;;;;;30.00;18.48;;;;;;;16.20;88.53;99158.19;5012927;28;20030;-81
2023/10/10 10:08:06;;;;;;;35.03;20.10;;;;;;;16.35;87.37;99182.34;5011017;28;20419;-82
2023/10/10 10:10:57;;;;;;;32.97;19.55;;;;;;;16.34;86.55;99171.81;5013454;28;20033;-81
2023/10/10 10:13:37;;;;;;;35.38;20.08;;;;;;;16.27;86.82;99164.06;5006065;28;20029;-81
2023/10/10 10:16:44;;;;;;;29.58;19.88;;;;;;;16.47;86.16;99180.13;5009428;28;21319;-81
2023/10/10 10:19:14;;;;;;;32.15;18.83;;;;;;;16.46;85.99;99167.75;5010610;28;20087;-81
2023/10/10 10:21:52;;;;;;;30.75;19.90;;;;;;;16.39;87.30;99175.31;5023210;28;20029;-80
2023/10/10 10:24:46;;;;;;;41.88;21.30;;;;;;;16.58;85.43;99186.28;5010572;28;20022;-81
2023/10/10 10:27:27;;;;;;;38.75;19.95;;;;;;;16.44;85.72;99169.91;4983189;28;20131;-81
2023/10/10 10:30:07;;;;;;;33.42;20.83;;;;;;;16.66;84.74;99182.19;5012456;28;20037;-81
2023/10/10 10:32:39;;;;;;;39.25;20.05;;;;;;;16.58;85.41;99185.50;5011623;28;20037;-81
2023/10/10 10:35:12;;;;;;;35.10;19.08;;;;;;;16.54;85.45;99184.41;4996085;28;20040;-81
2023/10/10 10:37:39;;;;;;;34.45;19.17;;;;;;;16.81;84.49;99192.88;5013439;28;20041;-81
2023/10/10 10:42:41;;;;;;;37.33;19.25;;;;;;;16.72;84.76;99175.69;5010191;28;20682;-81
2023/10/10 10:45:37;;;;;;;34.22;18.73;;;;;;;16.75;84.45;99173.25;5014040;28;20030;-80
2023/10/10 10:48:07;;;;;;;33.63;18.23;;;;;;;16.80;84.56;99173.19;5015143;28;20033;-81
2023/10/10 10:50:40;;;;;;;30.45;16.58;;;;;;;17.05;83.51;99183.00;4994563;28;20151;-81
2023/10/10 10:53:33;;;;;;;33.97;17.83;;;;;;;17.19;82.62;99179.34;5009692;28;20021;-81
2023/10/10 10:59:19;;;;;;;32.03;17.65;;;;;;;17.27;82.07;99169.84;5010552;28;20072;-81
2023/10/10 11:01:42;;;;;;;24.80;16.08;;;;;;;17.51;80.81;99164.53;5010793;28;20045;-81
2023/10/10 11:04:14;;;;;;;26.65;15.73;;;;;;;17.64;81.04;99167.34;5012171;28;20029;-81
2023/10/10 11:06:49;;;;;;;25.73;14.95;;;;;;;17.66;80.39;99170.56;5011496;28;20032;-81
2023/10/10 11:09:28;;;;;;;29.13;15.23;;;;;;;17.69;79.82;99161.09;5011882;28;20077;-81
2023/10/10 11:12:03;;;;;;;28.70;16.45;;;;;;;17.80;79.87;99163.38;5015340;28;20966;-81
2023/10/10 11:14:30;;;;;;;29.25;16.08;;;;;;;17.99;79.75;99160.75;5010943;28;20033;-81
2023/10/10 11:16:56;;;;;;;28.10;15.40;;;;;;;18.03;78.72;99158.25;5013328;28;20123;-81
2023/10/10 11:19:38;;;;;;;30.20;16.00;;;;;;;17.97;78.89;99152.13;5011192;28;20038;-81
2023/10/10 11:22:05;;;;;;;27.67;16.27;;;;;;;18.06;78.38;99152.28;5000794;28;20038;-80
2023/10/10 11:24:34;;;;;;;22.75;14.63;;;;;;;18.14;78.12;99147.03;5008876;28;20137;-81
2023/10/10 11:32:48;;;;;;;21.00;13.68;;;;;;;18.28;78.04;99133.63;4975142;28;20486;-81
2023/10/10 11:35:25;;;;;;;22.40;12.32;;;;;;;18.33;77.39;99130.81;5015109;28;21866;-81
2023/10/10 11:38:06;;;;;;;22.23;12.77;;;;;;;18.28;77.07;99112.78;5012199;28;20032;-81
2023/10/10 11:40:32;;;;;;;24.65;12.02;;;;;;;18.21;76.58;99117.78;5014366;28;20144;-81
2023/10/10 11:43:04;;;;;;;18.50;10.82;;;;;;;18.23;76.81;99112.88;4988918;28;20084;-81
2023/10/10 11:45:49;;;;;;;18.83;11.80;;;;;;;18.26;75.93;99103.38;5009255;28;20045;-81
2023/10/10 11:48:15;;;;;;;17.70;10.55;;;;;;;18.33;75.85;99088.41;5015877;28;20087;-81
2023/10/10 11:50:48;;;;;;;23.25;10.43;;;;;;;18.43;75.73;99103.66;4999401;28;20401;-81
2023/10/10 11:53:27;;;;;;;18.45;10.13;;;;;;;18.55;75.12;99102.16;5011334;28;20037;-81
2023/10/10 11:55:54;;;;;;;17.85;9.40;;;;;;;18.58;75.13;99082.66;5005221;28;20827;-82
2023/10/10 11:58:20;;;;;;;17.05;9.77;;;;;;;18.78;74.62;99086.13;5012959;28;20030;-80
2023/10/10 12:00:59;;;;;;;14.05;8.60;;;;;;;18.96;74.20;99096.88;4996867;28;20037;-81
2023/10/10 12:06:14;;;;;;;16.02;8.63;;;;;;;18.97;73.98;99076.84;5030268;28;20036;-81
2023/10/10 12:08:50;;;;;;;14.50;8.40;;;;;;;18.86;73.81;99083.53;4998717;28;20037;-81
2023/10/10 12:11:21;;;;;;;13.85;7.53;;;;;;;19.01;73.52;99069.75;5015960;28;20049;-81
2023/10/10 12:13:51;;;;;;;13.32;7.90;;;;;;;19.03;73.46;99070.25;5032403;28;20104;-82
2023/10/10 12:16:17;;;;;;;12.02;6.82;;;;;;;18.94;73.15;99058.50;5027455;28;20469;-81
2023/10/10 12:18:45;;;;;;;10.98;6.70;;;;;;;18.99;72.05;99055.72;5016894;28;20029;-81
2023/10/10 12:21:15;;;;;;;10.75;7.13;;;;;;;18.96;72.29;99058.22;5032515;28;20421;-81
2023/10/10 12:23:41;;;;;;;12.90;6.70;;;;;;;19.13;72.03;99061.16;5013761;28;20025;-81
2023/10/10 12:26:09;;;;;;;12.95;6.30;;;;;;;19.36;71.58;99047.47;5033704;28;20029;-81
2023/10/10 12:28:35;;;;;;;11.07;5.70;;;;;;;19.53;70.95;99052.28;5006672;28;20031;-81
2023/10/10 12:31:03;;;;;;;9.75;6.57;;;;;;;19.64;71.43;99037.41;5009340;28;20037;-81
2023/10/10 12:33:29;;;;;;;12.75;6.57;;;;;;;19.70;71.04;99047.03;5015289;28;20072;-81
2023/10/10 12:35:56;;;;;;;8.00;5.78;;;;;;;19.76;70.36;99045.84;5009588;28;20120;-81
2023/10/10 12:38:22;;;;;;;11.70;6.47;;;;;;;19.86;70.24;99042.09;5012544;28;20039;-81
2023/10/10 12:40:49;;;;;;;13.23;6.40;;;;;;;20.02;70.05;99024.41;5013619;28;20124;-81
2023/10/10 12:43:15;;;;;;;10.32;5.32;;;;;;;20.32;69.56;99031.88;5012537;28;20037;-81
2023/10/10 12:45:41;;;;;;;10.20;5.55;;;;;;;20.43;68.81;99024.28;4994687;28;20982;-82
2023/10/10 12:48:13;;;;;;;13.50;6.53;;;;;;;20.55;68.70;99016.41;4996944;28;20036;-81
2023/10/10 12:50:44;;;;;;;11.52;4.82;;;;;;;20.68;68.34;99020.97;4985003;28;20408;-82
2023/10/10 12:53:14;;;;;;;15.55;6.10;;;;;;;20.53;68.85;99011.28;5012625;28;20140;-81
2023/10/10 12:55:48;;;;;;;12.10;6.72;;;;;;;20.35;68.75;99009.56;4997180;28;20473;-82
2023/10/10 12:58:16;;;;;;;13.13;5.95;;;;;;;20.38;69.02;99029.84;5011533;28;20160;-81
2023/10/10 13:00:50;;;;;;;11.45;5.38;;;;;;;20.25;68.61;99015.22;5019093;28;20048;-81
2023/10/10 13:03:30;;;;;;;9.55;5.53;;;;;;;20.00;69.71;99023.91;5014031;28;20029;-81
2023/10/10 13:06:00;;;;;;;11.98;6.57;;;;;;;19.94;69.64;99012.38;5006968;28;20416;-81
2023/10/10 13:08:38;;;;;;;12.98;6.55;;;;;;;19.90;69.61;99019.50;5014139;28;20488;-81
2023/10/10 13:11:14;;;;;;;11.00;6.18;;;;;;;19.77;69.68;98987.84;5011286;28;20261;-81
2023/10/10 13:13:45;;;;;;;13.30;6.20;;;;;;;19.86;70.63;99007.69;4992477;28;20044;-81
2023/10/10 13:16:27;;;;;;;13.68;6.13;;;;;;;19.84;70.34;99003.69;5016640;28;20029;-81
2023/10/10 13:18:57;;;;;;;14.18;5.70;;;;;;;19.85;70.00;98999.88;5010335;28;20021;-81
2023/10/10 13:21:23;;;;;;;14.27;5.63;;;;;;;19.90;70.17;98991.63;5015434;28;20037;-81
2023/10/10 13:23:50;;;;;;;10.27;5.90;;;;;;;19.91;70.08;98987.81;5009924;28;20034;-82
2023/10/10 13:26:16;;;;;;;13.00;5.85;;;;;;;20.07;69.96;98997.97;4993856;28;20029;-81
2023/10/10 13:28:44;;;;;;;15.13;5.10;;;;;;;20.04;70.19;98992.38;5014018;28;20034;-81
2023/10/10 13:31:14;;;;;;;13.93;6.03;;;;;;;19.88;70.60;98988.41;5013550;28;20078;-82
2023/10/10 13:33:40;;;;;;;10.07;5.90;;;;;;;19.95;70.77;98994.22;5012863;28;20948;-82
2023/10/10 13:36:11;;;;;;;9.20;5.53;;;;;;;19.91;70.87;98990.53;5008089;28;20026;-81
2023/10/10 13:38:46;;;;;;;12.15;6.68;;;;;;;19.79;71.06;98982.13;5032146;28;20131;-81
2023/10/10 13:41:11;;;;;;;11.30;5.63;;;;;;;19.68;71.29;98973.41;5009116;28;20148;-81
2023/10/10 13:43:41;;;;;;;10.35;5.47;;;;;;;19.72;71.27;98979.84;5010209;28;20745;-82
2023/10/10 13:46:06;;;;;;;12.38;5.60;;;;;;;19.85;71.66;98997.97;4997212;28;20124;-81
2023/10/10 13:48:36;;;;;;;9.30;5.18;;;;;;;19.85;71.54;98981.72;5014621;28;20552;-82
2023/10/10 13:51:04;;;;;;;12.77;5.47;;;;;;;19.86;71.67;98985.22;5013712;28;20937;-81
2023/10/10 13:53:31;;;;;;;12.27;5.55;;;;;;;20.06;71.26;98995.59;4989945;28;20045;-81
2023/10/10 13:56:00;;;;;;;9.48;5.05;;;;;;;20.14;71.15;98965.84;5025541;28;20029;-82
2023/10/10 13:58:26;;;;;;;8.75;5.50;;;;;;;20.26;70.80;98969.94;5026408;28;20481;-81
2023/10/10 14:01:14;;;;;;;15.35;5.78;;;;;;;20.39;70.72;98983.44;5028127;28;20129;-82
2023/10/10 14:03:56;;;;;;;13.02;5.60;;;;;;;20.34;71.12;98980.03;5010776;28;20072;-82
2023/10/10 14:06:26;;;;;;;13.15;6.30;;;;;;;20.24;70.32;98970.25;5022650;28;20083;-82
2023/10/10 14:08:53;;;;;;;12.82;5.47;;;;;;;20.29;70.44;98982.88;5022865;28;20039;-82
2023/10/10 14:11:22;;;;;;;10.85;5.38;;;;;;;20.17;70.79;98980.69;5009885;28;20037;-82
2023/10/10 14:13:54;;;;;;;12.68;6.07;;;;;;;20.28;70.78;98978.56;5022776;28;20029;-82
2023/10/10 14:16:21;;;;;;;12.80;5.57;;;;;;;20.24;71.63;98974.88;5016216;28;20120;-82
2023/10/10 14:18:51;;;;;;;9.85;5.93;;;;;;;20.21;70.97;98968.16;5020494;28;20458;-82
2023/10/10 14:21:27;;;;;;;13.90;6.03;;;;;;;20.09;70.62;98951.63;5008143;28;20489;-83
2023/10/10 14:24:13;;;;;;;10.13;6.13;;;;;;;20.18;70.66;98971.47;5009174;28;20499;-82
2023/10/10 14:26:48;;;;;;;12.35;6.03;;;;;;;20.11;70.50;98971.09;5029200;28;20667;-82